San Jose Tobias Bolanos, Costa Rica

9:48 PM CST on September 01, 2014 (GMT -0600)
Escalante | Change Station
CLOSE
Current Station
Personal Weather Station
Location: San Jose, San Jose
Elevation: 3911 ft
Nearby Weather Stations

Elev 3911 ft 9.93 °N, 84.07 °W | Updated 1 second ago

Mostly Cloudy
Mostly Cloudy
68.5 °F
Feels Like 68.5 °F
N
2.0
Wind Variable Wind from East
Gusts 6.0 mph

Today
High -- | Low -- °F
--% Chance of Precip.
Yesterday
High -- | Low -- °F
Precip. -- in
5:27 AM 5:45 PM
Waxing Crescent, 47% visible
Pressure 30.03 in
Visibility 6.2 miles
Clouds Few 3500 ft
Mostly Cloudy 15000 ft
Dew Point 64 °F
Humidity 85%
Rainfall 0.00 in
Snow Depth Not available.
UV 0.0 out of 12
Pollen Not available.
Air Quality Not available.
Flu Activity Not available.
METAR MROC 020300Z 09008KT 9999 FEW035 BKN150 23/17 A3003 NOSIG

More Conditions Fewer Conditions

Pressure 30.03 in
Visibility 6.2 miles
Clouds Few 3500 ft
Mostly Cloudy 15000 ft
Dew Point 64 °F
Humidity 85%
Rainfall 0.00 in
Snow Depth Not available.
UV 0.0 out of 12
Pollen Not available.
Air Quality Not available.
Flu Activity Not available.
METAR MROC 020300Z 09008KT 9999 FEW035 BKN150 23/17 A3003 NOSIG

More Conditions Fewer Conditions

10-Day Weather Forecast

Almanac

Astronomy

Sep. 01, 2014 Rise Set
Actual Time 5:27 AM CST 5:45 PM CST
Civil Twilight 5:06 AM CST 6:06 PM CST
Nautical Twilight 4:41 AM CST 6:31 PM CST
Astronomical Twilight 4:16 AM CST 6:56 PM CST
Moon 11:00 AM CST (9/1) 10:59 PM CST (9/1)
Length of Visible Light 13h 00m
Length of Day
12h 18m
Tomorrow will be 0m 31s shorter.
Waxing Crescent, 47% of the Moon is Illuminated
Today
Waxing Crescent
Sep 2
First Quarter
Sep 8
Full
Sep 15
Last Quarter
Sep 24
New

Today's Extremes

Country Highs Country Lows

Community

WunderPhotos

Upload Photos

1,749,557 photos uploaded!

WunderBlogs® & News

Nearby

Snow Depth

Not available.

Earthquake Activity

City Distance Mag. Time & Date
No recent earthquake activity has been reported nearby.
Minimum magnitude displayed is 2.5.

Coastal Water Temperatures

Place Temperature
No Stations Reporting

Nearby Weather Stations